St. Margarethen - Festspielgelnde
Wetterdaten: aktuell Sonntag, 20.09.2020 05:57
Datum Zeit Temp. A. Feuchte A. Regen Wind Richtung Richtung Taupunkt Windchill Windben
20.09.2020 05:57 9,1 C 91 % 0,0 l/m 3,9 km/h (1 Bft) NO 46 7,7 C 9,1 C 8,0 km/h (2 Bft)
20.09.2020 04:57 9,3 C 91 % 0,0 l/m 1,1 km/h (1 Bft) NO 40 7,9 C 9,3 C 9,7 km/h (2 Bft)
20.09.2020 03:57 10,9 C 87 % 0,0 l/m 7,7 km/h (2 Bft) NO 51 8,8 C 10,0 C 9,7 km/h (2 Bft)
20.09.2020 02:56 11,2 C 87 % 0,0 l/m 0,3 km/h (0 Bft) NO 39 9,1 C 11,2 C 1,6 km/h (1 Bft)
20.09.2020 01:56 12,4 C 82 % 0,0 l/m 5,9 km/h (2 Bft) NO 51 9,4 C 12,4 C 8,0 km/h (2 Bft)
20.09.2020 00:56 12,0 C 82 % 0,0 l/m 8,2 km/h (2 Bft) NO 46 9,0 C 10,8 C 9,7 km/h (2 Bft)
19.09.2020 23:56 12,9 C 78 % 0,0 l/m 6,0 km/h (2 Bft) NO 53 9,2 C 12,9 C 8,0 km/h (2 Bft)
19.09.2020 22:56 13,4 C 76 % 0,0 l/m 6,0 km/h (2 Bft) O-NO 63 9,3 C 13,4 C 6,4 km/h (2 Bft)
19.09.2020 21:56 14,5 C 65 % 0,0 l/m 5,2 km/h (1 Bft) O-NO 70 8,0 C 14,5 C 6,4 km/h (2 Bft)
19.09.2020 20:56 16,6 C 54 % 0,0 l/m 3,7 km/h (1 Bft) O-SO 119 7,3 C 16,6 C 6,4 km/h (2 Bft)
19.09.2020 19:54 16,6 C 56 % 0,0 l/m 8,0 km/h (2 Bft) SO 134 7,8 C 15,8 C 12,9 km/h (3 Bft)
19.09.2020 18:54 17,6 C 52 % 0,0 l/m 6,5 km/h (2 Bft) O 92 7,6 C 17,6 C 9,7 km/h (2 Bft)
19.09.2020 17:54 18,5 C 50 % 0,0 l/m 6,4 km/h (2 Bft) O-NO 69 7,9 C 18,5 C 9,7 km/h (2 Bft)
19.09.2020 16:54 20,1 C 46 % 0,0 l/m 6,0 km/h (2 Bft) O 89 8,1 C 20,1 C 9,7 km/h (2 Bft)
19.09.2020 15:54 19,6 C 48 % 0,0 l/m 6,5 km/h (2 Bft) O 81 8,3 C 19,6 C 11,3 km/h (2 Bft)
19.09.2020 14:54 20,1 C 50 % 0,0 l/m 10,0 km/h (2 Bft) O 85 9,3 C 18,8 C 14,5 km/h (3 Bft)
19.09.2020 13:53 19,8 C 50 % 0,0 l/m 9,9 km/h (2 Bft) O-NO 78 9,1 C 18,5 C 16,1 km/h (3 Bft)
19.09.2020 12:53 20,3 C 50 % 0,0 l/m 11,7 km/h (2 Bft) SO 129 9,5 C 18,5 C 22,5 km/h (4 Bft)
19.09.2020 11:53 18,6 C 52 % 0,0 l/m 13,3 km/h (3 Bft) O-NO 77 8,5 C 16,0 C 19,3 km/h (3 Bft)
19.09.2020 10:53 16,4 C 57 % 0,0 l/m 6,8 km/h (2 Bft) SO 126 7,9 C 16,2 C 12,9 km/h (3 Bft)
19.09.2020 09:53 14,8 C 69 % 0,0 l/m 7,9 km/h (2 Bft) O 88 9,2 C 13,9 C 12,9 km/h (3 Bft)
19.09.2020 08:53 11,8 C 82 % 0,0 l/m 9,7 km/h (2 Bft) O 98 8,8 C 9,7 C 9,7 km/h (2 Bft)
19.09.2020 07:53 10,7 C 83 % 0,0 l/m 3,1 km/h (1 Bft) NO 54 7,9 C 10,7 C 6,4 km/h (2 Bft)
19.09.2020 06:53 9,4 C 86 % 0,0 l/m 0,0 km/h (0 Bft) O-SO 103 7,2 C 9,4 C 0,0 km/h (0 Bft)
19.09.2020 06:00 8,7 C 87 % 0,0 l/m 0,0 km/h (0 Bft) S-SW 194 6,7 C 8,7 C 0,0 km/h (0 Bft)
_ Min-Zeit 06:00 16:44 - 06:00 - - 06:00 05:18 06:00
Minimum _ 8,7 C 44 % - 0,0 km/h (0 Bft) - - 6,7 C 7,1 C 0,0 km/h (0 Bft)
_ Max-Zeit 13:13 04:42 06:00 13:14 - - 13:05 13:10 14:51
Maximum _ 21,0 C 91 % 0,0 l/m 19,5 km/h
O-SO (3 Bft)
- - 10,5 C 20,9 C 29,0 km/h
O (5 Bft)
Durchschnitt _ 14,4 C 69 % #0,0 l/m 5,7 km/h (1 Bft) O-NO - 8,3 C 13,9 C 9,0 km/h (2 Bft)